Harbor Emperor — WCY6430 — position and weather

sailwx.info

Track history (hours):
 
Tides and Currents Weather Stations Pressure Air Temp Water Temp Dewpoint Dewpoint Depression Visibility Wind Speed Wind Dir Waves Ship Positions

Harbor Emperor

Owner: BLUE & GOLD FLEET, SAN FRANCISCO, CA. More information available from US FCC via Universal Licensing System and Coast Guard Vessel Documentation Center.

Last reported at 2017-Feb-23 03:33 UTC. Time now 2017-Feb-23 11:52 UTC.
Position N 37°49' W 122°24'.

Length 27 m.

Type: Passenger vessel. MMSI: 366985270.

Date/timePositionNaut miles runAvg speedWind from/ knotsBaromVisibWave heightAir tempDewpointWater temp
2017-Feb-23 03:33N 37°49' W 122°24'5 5.0
2017-Feb-23 02:33N 37°47' W 122°18'3 2.8
2017-Feb-23 01:33N 37°47' W 122°21'1 0.8
2017-Feb-23 00:33N 37°48' W 122°21'3 2.7
2017-Feb-22 23:34N 37°49' W 122°25'0 0.0
2017-Feb-22 22:34N 37°49' W 122°25'0 0.0
2017-Feb-22 21:34N 37°49' W 122°25'0 0.0
2017-Feb-22 20:34N 37°49' W 122°25'0 0.0
2017-Feb-22 19:33N 37°49' W 122°25'2 2.5
2017-Feb-22 18:33N 37°49' W 122°28'2 0.1
2017-Feb-22 01:27N 37°49' W 122°25'0 0.0
2017-Feb-22 00:34N 37°49' W 122°25'2 2.3
2017-Feb-21 23:33N 37°49' W 122°28'2 2.4
2017-Feb-21 22:34N 37°49' W 122°25'2 2.5
2017-Feb-21 21:34N 37°49' W 122°28'3 3.1
2017-Feb-21 20:34N 37°49' W 122°24'1 0.9
2017-Feb-21 19:33N 37°49' W 122°25'2 2.3
2017-Feb-21 18:33N 37°49' W 122°28'2 0.1
2017-Feb-21 01:26N 37°49' W 122°25'0 0.1
2017-Feb-21 00:33N 37°49' W 122°25'3 3.0
2017-Feb-20 23:33N 37°49' W 122°28'3 3.1
2017-Feb-20 22:33N 37°49' W 122°25'3 2.7
2017-Feb-20 21:33N 37°49' W 122°28'2 2.3
2017-Feb-20 20:33N 37°50' W 122°25'1 1.2
2017-Feb-20 19:33N 37°49' W 122°25'2 2.3
2017-Feb-20 18:33N 37°49' W 122°28'2 2.3
2017-Feb-20 17:31N 37°49' W 122°25'0 0.0
2017-Feb-20 16:31N 37°49' W 122°25'0 0.0
2017-Feb-20 15:31N 37°49' W 122°25'0 0.0
2017-Feb-20 14:31N 37°49' W 122°25'0 0.0
2017-Feb-20 13:31N 37°49' W 122°25'0 0.0
2017-Feb-20 12:31N 37°49' W 122°25'0 0.0
2017-Feb-20 11:31N 37°49' W 122°25'0 0.0
2017-Feb-20 10:31N 37°49' W 122°25'0 0.0
2017-Feb-20 09:31N 37°49' W 122°25'0 0.0
2017-Feb-20 08:31N 37°49' W 122°25'0 0.0
2017-Feb-20 07:31N 37°49' W 122°25'0 0.0
2017-Feb-20 06:31N 37°49' W 122°25'0 0.0
2017-Feb-20 05:31N 37°49' W 122°25'0 0.0
2017-Feb-20 04:31N 37°49' W 122°25'0 0.0
2017-Feb-20 03:31N 37°49' W 122°25'0 0.0
2017-Feb-20 02:31N 37°49' W 122°25'0 0.0
2017-Feb-20 01:32N 37°49' W 122°25'0 0.0
2017-Feb-20 00:32N 37°49' W 122°25'2 2.3
2017-Feb-19 23:33N 37°49' W 122°27'2 2.2
2017-Feb-19 22:32N 37°49' W 122°25'2 2.5
2017-Feb-19 21:33N 37°49' W 122°28'2 2.2
2017-Feb-19 20:33N 37°50' W 122°25'1 1.0
2017-Feb-19 19:31N 37°49' W 122°25'2 1.7
2017-Feb-19 18:33N 37°49' W 122°27'3 0.2
2017-Feb-19 02:33N 37°48' W 122°23'4 3.5
2017-Feb-19 01:33N 37°49' W 122°27'2 2.0
2017-Feb-19 00:33N 37°49' W 122°25'0 0.0
2017-Feb-18 23:33N 37°49' W 122°25'0 0.0
2017-Feb-18 22:33N 37°49' W 122°25'2 2.5
2017-Feb-18 21:33N 37°49' W 122°28'2 2.1
2017-Feb-18 20:34N 37°50' W 122°25'1 1.2
2017-Feb-18 19:33N 37°49' W 122°25'3 2.8
2017-Feb-18 18:34N 37°49' W 122°28'3 0.2
2017-Feb-18 04:04N 37°49' W 122°25'1 1.4
2017-Feb-18 03:33N 37°49' W 122°25'2 1.6
2017-Feb-18 02:33N 37°48' W 122°24'1 1.1
2017-Feb-18 01:33N 37°49' W 122°25'0 0.0
2017-Feb-18 00:33N 37°49' W 122°25'2 2.4
2017-Feb-17 23:34N 37°49' W 122°28'2 2.4
2017-Feb-17 22:33N 37°49' W 122°25'0 0.0
2017-Feb-17 21:33N 37°49' W 122°25'1 1.3
2017-Feb-17 20:33N 37°50' W 122°25'1 1.2
2017-Feb-17 19:31N 37°49' W 122°25'0 0.0
2017-Feb-17 18:31N 37°49' W 122°25'0 0.0
2017-Feb-17 17:31N 37°49' W 122°25'0 0.0
2017-Feb-17 16:31N 37°49' W 122°25'0 0.0
2017-Feb-17 15:31N 37°49' W 122°25'0 0.0
2017-Feb-17 14:31N 37°49' W 122°25'0 0.0
2017-Feb-17 13:31N 37°49' W 122°25'0 0.0
2017-Feb-17 12:31N 37°49' W 122°25'0 0.0
2017-Feb-17 11:31N 37°49' W 122°25'0 0.0
2017-Feb-17 10:27N 37°49' W 122°25'0 0.0
2017-Feb-17 09:31N 37°49' W 122°25'0 0.0
2017-Feb-17 08:31N 37°49' W 122°25'0 0.0
2017-Feb-17 07:34N 37°49' W 122°25'0 0.0
2017-Feb-17 06:33N 37°49' W 122°25'0 0.0
2017-Feb-17 05:31N 37°49' W 122°25'0 0.0
2017-Feb-17 04:33N 37°49' W 122°25'0 0.0
2017-Feb-17 03:34N 37°49' W 122°25'0 0.0
2017-Feb-17 02:33N 37°49' W 122°25'0 0.0
2017-Feb-17 01:34N 37°49' W 122°25'0 0.1
2017-Feb-17 00:33N 37°49' W 122°25'2 2.0
2017-Feb-16 23:33N 37°49' W 122°27'2 2.1
2017-Feb-16 22:33N 37°49' W 122°25'2 1.8
2017-Feb-16 21:33N 37°49' W 122°27'2 1.7
2017-Feb-16 20:34N 37°50' W 122°25'1 1.2
2017-Feb-16 19:33N 37°49' W 122°25'2 1.7
2017-Feb-16 18:33N 37°49' W 122°27'2 0.1
2017-Feb-16 04:13N 37°49' W 122°25'1 1.7
2017-Feb-16 03:33N 37°50' W 122°25'2 2.0
2017-Feb-16 02:33N 37°48' W 122°24'1 1.1
2017-Feb-16 01:33N 37°49' W 122°25'0 0.1
2017-Feb-16 00:34N 37°49' W 122°25'3 2.6
2017-Feb-15 23:33N 37°49' W 122°28'3 2.6
2017-Feb-15 22:33N 37°49' W 122°25'2 2.1
2017-Feb-15 21:33N 37°49' W 122°27'2 2.1
2017-Feb-15 20:33N 37°49' W 122°25'1 0.6
2017-Feb-15 19:34N 37°49' W 122°25'2 2.0
2017-Feb-15 18:33N 37°49' W 122°27'2 0.1
2017-Feb-15 03:33N 37°49' W 122°25'3 3.2
2017-Feb-15 02:33N 37°51' W 122°27'3 3.2
2017-Feb-15 01:34N 37°49' W 122°25'0 0.0
2017-Feb-15 00:34N 37°49' W 122°25'0 0.0
2017-Feb-14 23:34N 37°49' W 122°25'0 0.0
2017-Feb-14 22:34N 37°49' W 122°25'3 2.7
2017-Feb-14 21:33N 37°49' W 122°28'3 3.3
2017-Feb-14 20:34N 37°49' W 122°24'1 0.7
2017-Feb-14 19:34N 37°49' W 122°25'2 2.1
2017-Feb-14 18:34N 37°49' W 122°27'2 0.1
2017-Feb-14 04:06N 37°49' W 122°25'1 2.3
2017-Feb-14 03:33N 37°50' W 122°25'2 2.3
2017-Feb-14 02:33N 37°48' W 122°24'1 1.1
2017-Feb-14 01:31N 37°49' W 122°25'0 0.1
2017-Feb-14 00:33N 37°49' W 122°25'3 2.9
2017-Feb-13 23:33N 37°49' W 122°28'3 2.9
2017-Feb-13 22:34N 37°49' W 122°25'3 2.8
2017-Feb-13 21:33N 37°49' W 122°28'2 2.4
2017-Feb-13 20:34N 37°50' W 122°25'1 1.1
2017-Feb-13 19:34N 37°49' W 122°25'3 2.6
2017-Feb-13 18:33N 37°49' W 122°28'3 2.7
2017-Feb-13 17:33N 37°49' W 122°25'0 0.0
2017-Feb-13 16:32N 37°49' W 122°25'0 0.0
2017-Feb-13 15:32N 37°49' W 122°25'0 0.0
2017-Feb-13 14:32N 37°49' W 122°25'0 0.0
2017-Feb-13 13:32N 37°49' W 122°25'0 0.0
2017-Feb-13 12:32N 37°49' W 122°25'0 0.0
2017-Feb-13 11:32N 37°49' W 122°25'0 0.0
2017-Feb-13 10:32N 37°49' W 122°25'0 0.0
2017-Feb-13 09:32N 37°49' W 122°25'0 0.0
2017-Feb-13 08:32N 37°49' W 122°25'0 0.0
2017-Feb-13 07:29N 37°49' W 122°25'0 0.0
2017-Feb-13 06:32N 37°49' W 122°25'0 0.0
2017-Feb-13 05:32N 37°49' W 122°25'0 0.0
2017-Feb-13 04:32N 37°49' W 122°25'  
Track history (hours):
 
Tides and Currents Weather Stations Pressure Air Temp Water Temp Dewpoint Dewpoint Depression Visibility Wind Speed Wind Dir Waves Ship Positions

Harbor Emperor

Owner: BLUE & GOLD FLEET, SAN FRANCISCO, CA. More information available from US FCC via Universal Licensing System and Coast Guard Vessel Documentation Center.

Last reported at 2017-Feb-23 03:33 UTC. Time now 2017-Feb-23 11:52 UTC.
Position N 37°49' W 122°24'.

Length 27 m.

Type: Passenger vessel. MMSI: 366985270.

Date/timePositionNaut miles runAvg speedWind from/ knotsBaromVisibWave heightAir tempDewpointWater temp
2017-Feb-23 03:33N 37°49' W 122°24'5 5.0
2017-Feb-23 02:33N 37°47' W 122°18'3 2.8
2017-Feb-23 01:33N 37°47' W 122°21'1 0.8
2017-Feb-23 00:33N 37°48' W 122°21'3 2.7
2017-Feb-22 23:34N 37°49' W 122°25'0 0.0
2017-Feb-22 22:34N 37°49' W 122°25'0 0.0
2017-Feb-22 21:34N 37°49' W 122°25'0 0.0
2017-Feb-22 20:34N 37°49' W 122°25'0 0.0
2017-Feb-22 19:33N 37°49' W 122°25'2 2.5
2017-Feb-22 18:33N 37°49' W 122°28'2 0.1
2017-Feb-22 01:27N 37°49' W 122°25'0 0.0
2017-Feb-22 00:34N 37°49' W 122°25'2 2.3
2017-Feb-21 23:33N 37°49' W 122°28'2 2.4
2017-Feb-21 22:34N 37°49' W 122°25'2 2.5
2017-Feb-21 21:34N 37°49' W 122°28'3 3.1
2017-Feb-21 20:34N 37°49' W 122°24'1 0.9
2017-Feb-21 19:33N 37°49' W 122°25'2 2.3
2017-Feb-21 18:33N 37°49' W 122°28'2 0.1
2017-Feb-21 01:26N 37°49' W 122°25'0 0.1
2017-Feb-21 00:33N 37°49' W 122°25'3 3.0
2017-Feb-20 23:33N 37°49' W 122°28'3 3.1
2017-Feb-20 22:33N 37°49' W 122°25'3 2.7
2017-Feb-20 21:33N 37°49' W 122°28'2 2.3
2017-Feb-20 20:33N 37°50' W 122°25'1 1.2
2017-Feb-20 19:33N 37°49' W 122°25'2 2.3
2017-Feb-20 18:33N 37°49' W 122°28'2 2.3
2017-Feb-20 17:31N 37°49' W 122°25'0 0.0
2017-Feb-20 16:31N 37°49' W 122°25'0 0.0
2017-Feb-20 15:31N 37°49' W 122°25'0 0.0
2017-Feb-20 14:31N 37°49' W 122°25'0 0.0
2017-Feb-20 13:31N 37°49' W 122°25'0 0.0
2017-Feb-20 12:31N 37°49' W 122°25'0 0.0
2017-Feb-20 11:31N 37°49' W 122°25'0 0.0
2017-Feb-20 10:31N 37°49' W 122°25'0 0.0
2017-Feb-20 09:31N 37°49' W 122°25'0 0.0
2017-Feb-20 08:31N 37°49' W 122°25'0 0.0
2017-Feb-20 07:31N 37°49' W 122°25'0 0.0
2017-Feb-20 06:31N 37°49' W 122°25'0 0.0
2017-Feb-20 05:31N 37°49' W 122°25'0 0.0
2017-Feb-20 04:31N 37°49' W 122°25'0 0.0
2017-Feb-20 03:31N 37°49' W 122°25'0 0.0
2017-Feb-20 02:31N 37°49' W 122°25'0 0.0
2017-Feb-20 01:32N 37°49' W 122°25'0 0.0
2017-Feb-20 00:32N 37°49' W 122°25'2 2.3
2017-Feb-19 23:33N 37°49' W 122°27'2 2.2
2017-Feb-19 22:32N 37°49' W 122°25'2 2.5
2017-Feb-19 21:33N 37°49' W 122°28'2 2.2
2017-Feb-19 20:33N 37°50' W 122°25'1 1.0
2017-Feb-19 19:31N 37°49' W 122°25'2 1.7
2017-Feb-19 18:33N 37°49' W 122°27'3 0.2
2017-Feb-19 02:33N 37°48' W 122°23'4 3.5
2017-Feb-19 01:33N 37°49' W 122°27'2 2.0
2017-Feb-19 00:33N 37°49' W 122°25'0 0.0
2017-Feb-18 23:33N 37°49' W 122°25'0 0.0
2017-Feb-18 22:33N 37°49' W 122°25'2 2.5
2017-Feb-18 21:33N 37°49' W 122°28'2 2.1
2017-Feb-18 20:34N 37°50' W 122°25'1 1.2
2017-Feb-18 19:33N 37°49' W 122°25'3 2.8
2017-Feb-18 18:34N 37°49' W 122°28'3 0.2
2017-Feb-18 04:04N 37°49' W 122°25'1 1.4
2017-Feb-18 03:33N 37°49' W 122°25'2 1.6
2017-Feb-18 02:33N 37°48' W 122°24'1 1.1
2017-Feb-18 01:33N 37°49' W 122°25'0 0.0
2017-Feb-18 00:33N 37°49' W 122°25'2 2.4
2017-Feb-17 23:34N 37°49' W 122°28'2 2.4
2017-Feb-17 22:33N 37°49' W 122°25'0 0.0
2017-Feb-17 21:33N 37°49' W 122°25'1 1.3
2017-Feb-17 20:33N 37°50' W 122°25'1 1.2
2017-Feb-17 19:31N 37°49' W 122°25'0 0.0
2017-Feb-17 18:31N 37°49' W 122°25'0 0.0
2017-Feb-17 17:31N 37°49' W 122°25'0 0.0
2017-Feb-17 16:31N 37°49' W 122°25'0 0.0
2017-Feb-17 15:31N 37°49' W 122°25'0 0.0
2017-Feb-17 14:31N 37°49' W 122°25'0 0.0
2017-Feb-17 13:31N 37°49' W 122°25'0 0.0
2017-Feb-17 12:31N 37°49' W 122°25'0 0.0
2017-Feb-17 11:31N 37°49' W 122°25'0 0.0
2017-Feb-17 10:27N 37°49' W 122°25'0 0.0
2017-Feb-17 09:31N 37°49' W 122°25'0 0.0
2017-Feb-17 08:31N 37°49' W 122°25'0 0.0
2017-Feb-17 07:34N 37°49' W 122°25'0 0.0
2017-Feb-17 06:33N 37°49' W 122°25'0 0.0
2017-Feb-17 05:31N 37°49' W 122°25'0 0.0
2017-Feb-17 04:33N 37°49' W 122°25'0 0.0
2017-Feb-17 03:34N 37°49' W 122°25'0 0.0
2017-Feb-17 02:33N 37°49' W 122°25'0 0.0
2017-Feb-17 01:34N 37°49' W 122°25'0 0.1
2017-Feb-17 00:33N 37°49' W 122°25'2 2.0
2017-Feb-16 23:33N 37°49' W 122°27'2 2.1
2017-Feb-16 22:33N 37°49' W 122°25'2 1.8
2017-Feb-16 21:33N 37°49' W 122°27'2 1.7
2017-Feb-16 20:34N 37°50' W 122°25'1 1.2
2017-Feb-16 19:33N 37°49' W 122°25'2 1.7
2017-Feb-16 18:33N 37°49' W 122°27'2 0.1
2017-Feb-16 04:13N 37°49' W 122°25'1 1.7
2017-Feb-16 03:33N 37°50' W 122°25'2 2.0
2017-Feb-16 02:33N 37°48' W 122°24'1 1.1
2017-Feb-16 01:33N 37°49' W 122°25'0 0.1
2017-Feb-16 00:34N 37°49' W 122°25'3 2.6
2017-Feb-15 23:33N 37°49' W 122°28'3 2.6
2017-Feb-15 22:33N 37°49' W 122°25'2 2.1
2017-Feb-15 21:33N 37°49' W 122°27'2 2.1
2017-Feb-15 20:33N 37°49' W 122°25'1 0.6
2017-Feb-15 19:34N 37°49' W 122°25'2 2.0
2017-Feb-15 18:33N 37°49' W 122°27'2 0.1
2017-Feb-15 03:33N 37°49' W 122°25'3 3.2
2017-Feb-15 02:33N 37°51' W 122°27'3 3.2
2017-Feb-15 01:34N 37°49' W 122°25'0 0.0
2017-Feb-15 00:34N 37°49' W 122°25'0 0.0
2017-Feb-14 23:34N 37°49' W 122°25'0 0.0
2017-Feb-14 22:34N 37°49' W 122°25'3 2.7
2017-Feb-14 21:33N 37°49' W 122°28'3 3.3
2017-Feb-14 20:34N 37°49' W 122°24'1 0.7
2017-Feb-14 19:34N 37°49' W 122°25'2 2.1
2017-Feb-14 18:34N 37°49' W 122°27'2 0.1
2017-Feb-14 04:06N 37°49' W 122°25'1 2.3
2017-Feb-14 03:33N 37°50' W 122°25'2 2.3
2017-Feb-14 02:33N 37°48' W 122°24'1 1.1
2017-Feb-14 01:31N 37°49' W 122°25'0 0.1
2017-Feb-14 00:33N 37°49' W 122°25'3 2.9
2017-Feb-13 23:33N 37°49' W 122°28'3 2.9
2017-Feb-13 22:34N 37°49' W 122°25'3 2.8
2017-Feb-13 21:33N 37°49' W 122°28'2 2.4
2017-Feb-13 20:34N 37°50' W 122°25'1 1.1
2017-Feb-13 19:34N 37°49' W 122°25'3 2.6
2017-Feb-13 18:33N 37°49' W 122°28'3 2.7
2017-Feb-13 17:33N 37°49' W 122°25'0 0.0
2017-Feb-13 16:32N 37°49' W 122°25'0 0.0
2017-Feb-13 15:32N 37°49' W 122°25'0 0.0
2017-Feb-13 14:32N 37°49' W 122°25'0 0.0
2017-Feb-13 13:32N 37°49' W 122°25'0 0.0
2017-Feb-13 12:32N 37°49' W 122°25'0 0.0
2017-Feb-13 11:32N 37°49' W 122°25'0 0.0
2017-Feb-13 10:32N 37°49' W 122°25'0 0.0
2017-Feb-13 09:32N 37°49' W 122°25'0 0.0
2017-Feb-13 08:32N 37°49' W 122°25'0 0.0
2017-Feb-13 07:29N 37°49' W 122°25'0 0.0
2017-Feb-13 06:32N 37°49' W 122°25'0 0.0
2017-Feb-13 05:32N 37°49' W 122°25'0 0.0
2017-Feb-13 04:32N 37°49' W 122°25'  

Dump ship's entire track history